Time;durP1;ratioP1;P1;durP2;ratioP2;P2;SDS_P1;SDS_P2;PMS_P1;PMS_P2;Temp;Humidity;BMP_temperature;BMP_pressure;BME280_temperature;BME280_humidity;BME280_pressure;Samples;Min_cycle;Max_cycle;Signal;HPM_P1;HPM_P2
2022/03/17 00:01:32;;;;;;;15.68;13.68;;;;;;;8.40;100.00;100939.59;5065706;28;20134;-64
2022/03/17 00:03:58;;;;;;;22.27;15.75;;;;;;;8.39;100.00;100922.16;5066505;28;20994;-63
2022/03/17 00:06:24;;;;;;;16.45;14.10;;;;;;;8.44;100.00;100930.75;5066172;28;20225;-63
2022/03/17 00:08:49;;;;;;;17.23;14.35;;;;;;;8.45;100.00;100932.47;5066658;28;20059;-63
2022/03/17 00:11:15;;;;;;;18.35;14.05;;;;;;;8.48;100.00;100935.81;5063846;28;20975;-63
2022/03/17 00:13:41;;;;;;;19.20;16.50;;;;;;;8.54;100.00;100934.78;5064947;28;20031;-63
2022/03/17 00:16:09;;;;;;;27.30;15.95;;;;;;;8.50;100.00;100899.13;5065743;28;20034;-63
2022/03/17 00:18:35;;;;;;;21.75;17.45;;;;;;;8.72;100.00;100923.66;5065520;28;20027;-63
2022/03/17 00:21:00;;;;;;;18.52;16.02;;;;;;;8.82;100.00;100922.44;5069866;28;20216;-63
2022/03/17 00:23:25;;;;;;;21.13;16.35;;;;;;;8.92;100.00;100921.22;5069541;28;20081;-63
2022/03/17 00:25:51;;;;;;;24.90;17.25;;;;;;;9.00;100.00;100921.81;5070743;28;20023;-64
2022/03/17 00:28:16;;;;;;;23.65;15.75;;;;;;;9.09;100.00;100915.41;5069223;28;20078;-64
2022/03/17 00:30:41;;;;;;;23.55;16.10;;;;;;;9.09;100.00;100903.13;5070262;28;20099;-64
2022/03/17 00:33:07;;;;;;;17.77;15.90;;;;;;;9.20;100.00;100914.09;5071294;28;20055;-63
2022/03/17 00:35:35;;;;;;;17.15;15.25;;;;;;;9.25;100.00;100906.06;5070736;28;20454;-64
2022/03/17 00:38:01;;;;;;;25.23;16.25;;;;;;;9.38;100.00;100911.69;5069476;28;20031;-67
2022/03/17 00:40:27;;;;;;;19.08;15.80;;;;;;;9.50;100.00;100919.09;5070655;28;20019;-64
2022/03/17 00:42:53;;;;;;;17.35;14.65;;;;;;;9.45;100.00;100910.56;5069503;28;20082;-64
2022/03/17 00:45:18;;;;;;;22.80;15.35;;;;;;;9.26;100.00;100875.47;5069749;28;20885;-64
2022/03/17 00:47:44;;;;;;;16.20;14.48;;;;;;;9.46;100.00;100917.53;5069330;28;20616;-63
2022/03/17 00:50:11;;;;;;;19.73;15.65;;;;;;;9.55;100.00;100919.81;5069460;28;20783;-64
2022/03/17 00:52:37;;;;;;;22.00;16.17;;;;;;;9.60;100.00;100936.22;5070617;28;20028;-64
2022/03/17 00:55:05;;;;;;;26.77;16.48;;;;;;;9.57;100.00;100941.56;5069888;28;20066;-64
2022/03/17 00:57:31;;;;;;;21.15;15.23;;;;;;;9.50;100.00;100929.59;5069709;28;20032;-63
2022/03/17 00:59:56;;;;;;;19.08;15.88;;;;;;;9.49;100.00;100923.53;5069945;28;20034;-63
2022/03/17 01:02:21;;;;;;;20.15;16.65;;;;;;;9.08;100.00;100861.25;5068471;28;20940;-63
2022/03/17 01:04:47;;;;;;;17.88;15.98;;;;;;;9.56;100.00;100939.88;5062055;28;20077;-64
2022/03/17 01:07:12;;;;;;;23.10;16.42;;;;;;;9.52;100.00;100947.00;5068235;28;20024;-63
2022/03/17 01:09:38;;;;;;;19.60;15.95;;;;;;;9.54;100.00;100945.19;5069687;28;20031;-64
2022/03/17 01:12:04;;;;;;;19.13;16.13;;;;;;;9.58;100.00;100940.66;5070642;28;20788;-64
2022/03/17 01:14:29;;;;;;;17.08;15.25;;;;;;;9.60;100.00;100947.56;5067919;28;20647;-63
2022/03/17 01:16:55;;;;;;;19.15;16.15;;;;;;;9.58;100.00;100941.53;5067901;28;20027;-63
2022/03/17 01:19:20;;;;;;;17.75;15.88;;;;;;;9.59;100.00;100942.38;5049939;28;20844;-64
2022/03/17 01:21:46;;;;;;;17.80;15.80;;;;;;;9.59;100.00;100940.63;5068700;28;20129;-64
2022/03/17 01:24:12;;;;;;;19.58;16.42;;;;;;;9.63;100.00;100934.31;5068426;28;20031;-64
2022/03/17 01:26:37;;;;;;;19.33;16.40;;;;;;;9.72;100.00;100941.00;5068514;28;20891;-64
2022/03/17 01:29:03;;;;;;;19.38;15.43;;;;;;;9.81;100.00;100943.28;5068214;28;20080;-64
2022/03/17 01:31:29;;;;;;;22.48;15.88;;;;;;;9.89;100.00;100946.47;5066871;28;20081;-64
2022/03/17 01:33:56;;;;;;;21.48;15.82;;;;;;;9.87;100.00;100931.72;5067774;28;20096;-64
2022/03/17 01:36:21;;;;;;;21.73;16.23;;;;;;;9.54;100.00;100876.09;5068311;28;20338;-63
2022/03/17 01:38:47;;;;;;;22.63;18.30;;;;;;;9.82;100.00;100934.50;5067590;28;20027;-64
2022/03/17 01:41:12;;;;;;;21.55;15.15;;;;;;;9.73;100.00;100925.19;5070126;28;20026;-64
2022/03/17 01:43:37;;;;;;;22.05;16.67;;;;;;;9.37;100.00;100870.66;5069014;28;20038;-63
2022/03/17 01:46:03;;;;;;;21.02;16.45;;;;;;;9.77;100.00;100938.22;5068747;28;20075;-64
2022/03/17 01:48:28;;;;;;;17.65;15.85;;;;;;;9.71;100.00;100923.53;5068241;28;20982;-64
2022/03/17 01:50:54;;;;;;;20.30;17.80;;;;;;;9.79;100.00;100929.38;5057035;27;20032;-63
2022/03/17 01:53:21;;;;;;;21.77;16.95;;;;;;;9.84;100.00;100927.41;5046586;28;20028;-64
2022/03/17 01:55:46;;;;;;;22.17;17.60;;;;;;;9.96;100.00;100932.19;5046268;28;20094;-64
2022/03/17 01:58:12;;;;;;;25.10;18.40;;;;;;;9.88;100.00;100915.03;5046250;28;20034;-63
2022/03/17 02:00:40;;;;;;;23.17;17.73;;;;;;;9.93;100.00;100895.56;5047904;28;20020;-63
2022/03/17 02:03:06;;;;;;;20.02;16.88;;;;;;;10.08;100.00;100917.72;5046381;28;20126;-63
2022/03/17 02:05:32;;;;;;;24.08;19.17;;;;;;;9.84;100.00;100874.91;5046291;28;20998;-63
2022/03/17 02:07:58;;;;;;;25.58;18.10;;;;;;;9.71;100.00;100842.19;5047298;28;20136;-63
2022/03/17 02:10:23;;;;;;;21.83;16.63;;;;;;;10.16;100.00;100916.56;5045969;28;20033;-63
2022/03/17 02:15:33;;;;;;;25.88;17.70;;;;;;;10.07;100.00;100930.00;5046539;28;20109;-63
2022/03/17 02:18:06;;;;;;;24.02;18.42;;;;;;;10.07;100.00;100937.03;5046030;28;20980;-64
2022/03/17 02:20:33;;;;;;;25.27;17.88;;;;;;;10.10;100.00;100940.41;5046078;28;20035;-63
2022/03/17 02:25:57;;;;;;;20.75;18.33;;;;;;;10.26;100.00;100945.91;5041270;28;21003;-64
2022/03/17 02:28:24;;;;;;;22.88;19.23;;;;;;;10.30;100.00;100946.66;5046101;28;20020;-63
2022/03/17 02:30:50;;;;;;;34.80;19.77;;;;;;;10.38;100.00;100947.19;5045688;28;20091;-64
2022/03/17 02:33:16;;;;;;;25.25;20.40;;;;;;;10.26;100.00;100930.16;5045713;28;20155;-64
2022/03/17 02:35:43;;;;;;;34.60;20.15;;;;;;;10.40;100.00;100948.84;5046197;28;20042;-64
2022/03/17 02:38:13;;;;;;;27.33;20.65;;;;;;;10.51;100.00;100953.66;5045781;28;20139;-64
2022/03/17 02:40:41;;;;;;;21.92;19.40;;;;;;;10.62;100.00;100964.56;5038508;28;20063;-63
2022/03/17 02:43:07;;;;;;;29.65;21.25;;;;;;;10.67;100.00;100960.00;5045957;28;20035;-64
2022/03/17 02:45:35;;;;;;;22.00;19.55;;;;;;;10.73;100.00;100965.00;5045876;28;20039;-64
2022/03/17 02:48:05;;;;;;;28.33;19.83;;;;;;;10.79;100.00;100977.88;5045655;28;20400;-64
2022/03/17 02:50:31;;;;;;;28.42;20.27;;;;;;;10.77;100.00;100964.81;5045703;28;20032;-63
2022/03/17 02:52:59;;;;;;;25.95;20.63;;;;;;;10.84;100.00;100980.31;5029587;28;20020;-63
2022/03/17 02:55:24;;;;;;;31.30;21.27;;;;;;;10.78;100.00;100981.44;5046910;28;20412;-64
2022/03/17 02:57:50;;;;;;;26.40;20.45;;;;;;;10.72;100.00;100982.53;5045163;28;20540;-64
2022/03/17 03:00:16;;;;;;;26.80;21.58;;;;;;;10.67;100.00;100983.66;5046770;28;20136;-63
2022/03/17 03:02:42;;;;;;;27.65;20.00;;;;;;;10.60;100.00;100987.44;5045383;28;20046;-63
2022/03/17 03:05:08;;;;;;;26.67;23.33;;;;;;;10.53;100.00;100986.84;5046083;28;20028;-63
2022/03/17 03:07:34;;;;;;;25.08;22.20;;;;;;;10.62;100.00;100990.84;5047084;28;20214;-63
2022/03/17 03:10:00;;;;;;;35.58;23.23;;;;;;;10.64;100.00;100983.78;5045141;28;20123;-64
2022/03/17 03:12:25;;;;;;;25.35;22.08;;;;;;;10.72;100.00;101005.31;5045341;28;20028;-63
2022/03/17 03:14:51;;;;;;;28.90;23.13;;;;;;;10.69;100.00;100989.69;5045247;28;20024;-63
2022/03/17 03:17:17;;;;;;;28.98;22.75;;;;;;;10.76;100.00;101009.53;5045317;28;20028;-63
2022/03/17 03:19:42;;;;;;;25.55;20.83;;;;;;;10.80;100.00;101011.13;5045712;28;20028;-63
2022/03/17 03:22:08;;;;;;;24.63;21.42;;;;;;;10.78;100.00;101013.00;5045756;28;20063;-63
2022/03/17 03:24:36;;;;;;;26.77;22.25;;;;;;;10.84;100.00;101025.88;5045035;28;20108;-63
2022/03/17 03:27:02;;;;;;;28.75;22.17;;;;;;;10.83;100.00;101020.66;5045822;28;20196;-63
2022/03/17 03:29:27;;;;;;;31.00;23.75;;;;;;;10.77;100.00;101040.19;5045600;28;20101;-63
2022/03/17 03:31:55;;;;;;;33.25;23.92;;;;;;;10.72;100.00;101035.09;5045952;28;20094;-63
2022/03/17 03:34:21;;;;;;;27.63;21.83;;;;;;;10.63;100.00;101045.13;5046299;28;20097;-63
2022/03/17 03:39:32;;;;;;;27.85;23.13;;;;;;;10.51;100.00;101056.13;5046628;28;20065;-63
2022/03/17 03:41:58;;;;;;;31.10;24.15;;;;;;;10.31;100.00;101053.44;5045779;28;20020;-63
2022/03/17 03:44:23;;;;;;;29.45;22.25;;;;;;;10.34;100.00;101088.31;5046354;28;20028;-63
2022/03/17 03:46:48;;;;;;;21.48;17.27;;;;;;;10.21;100.00;101087.91;5045181;28;20032;-64
2022/03/17 03:49:14;;;;;;;19.00;15.70;;;;;;;10.07;100.00;101102.44;5028624;28;20831;-64
2022/03/17 03:51:39;;;;;;;16.80;15.20;;;;;;;9.85;100.00;101097.09;5046599;28;20866;-64
2022/03/17 03:54:15;;;;;;;15.65;14.02;;;;;;;9.74;100.00;101109.75;5045440;28;20303;-64
2022/03/17 03:56:44;;;;;;;17.55;15.00;;;;;;;9.62;100.00;101126.78;5033064;28;20247;-64
2022/03/17 03:59:15;;;;;;;21.38;19.13;;;;;;;9.21;100.00;101106.34;5049045;28;20024;-64
2022/03/17 04:01:41;;;;;;;22.08;19.55;;;;;;;9.27;100.00;101145.47;5049156;28;20028;-64
2022/03/17 04:04:06;;;;;;;23.65;21.15;;;;;;;9.17;100.00;101165.91;5048924;28;20035;-64
2022/03/17 04:06:36;;;;;;;24.42;21.55;;;;;;;8.91;100.00;101146.66;5048592;28;20028;-64
2022/03/17 04:09:01;;;;;;;30.50;27.00;;;;;;;8.92;100.00;101169.34;5048284;28;20047;-64
2022/03/17 04:11:26;;;;;;;33.35;28.92;;;;;;;8.86;100.00;101175.63;5048628;28;20020;-64
2022/03/17 04:13:52;;;;;;;33.25;29.42;;;;;;;8.76;100.00;101174.19;5048308;28;20028;-63
2022/03/17 04:16:17;;;;;;;36.17;31.95;;;;;;;8.67;100.00;101190.19;5048775;28;20032;-63
2022/03/17 04:18:42;;;;;;;37.58;31.65;;;;;;;8.64;100.00;101200.75;5048515;28;20028;-64
2022/03/17 04:21:08;;;;;;;46.83;34.58;;;;;;;8.55;100.00;101203.66;5048651;28;20092;-64
2022/03/17 04:23:33;;;;;;;42.35;34.60;;;;;;;8.39;100.00;101204.97;5050812;28;20963;-63
2022/03/17 04:25:58;;;;;;;54.90;40.33;;;;;;;8.45;100.00;101225.78;5050451;28;20184;-63
2022/03/17 04:28:24;;;;;;;44.63;37.67;;;;;;;8.40;100.00;101220.66;5049017;28;20051;-64
2022/03/17 04:30:49;;;;;;;54.22;40.53;;;;;;;8.43;100.00;101248.50;5048181;28;20148;-64
2022/03/17 04:33:14;;;;;;;49.60;41.13;;;;;;;8.35;100.00;101240.03;5049781;28;20028;-63
2022/03/17 04:35:40;;;;;;;47.92;40.35;;;;;;;8.06;100.00;101194.50;5048010;28;20881;-62
2022/03/17 04:38:05;;;;;;;48.55;41.28;;;;;;;8.33;100.00;101241.81;5047967;28;20159;-63
2022/03/17 04:40:30;;;;;;;63.85;44.17;;;;;;;8.27;100.00;101257.66;5047687;28;20031;-63
2022/03/17 04:42:56;;;;;;;50.88;42.92;;;;;;;8.07;100.00;101245.09;5048531;28;20032;-62
2022/03/17 04:45:21;;;;;;;53.15;43.85;;;;;;;8.14;100.00;101260.56;5047896;28;20085;-62
2022/03/17 04:47:47;;;;;;;60.53;46.53;;;;;;;7.89;100.00;101225.50;5048108;28;20032;-63
2022/03/17 04:50:12;;;;;;;57.65;45.53;;;;;;;8.10;100.00;101269.44;5048662;28;20123;-62
2022/03/17 04:55:22;;;;;;;52.27;42.13;;;;;;;8.09;100.00;101296.50;5049152;28;20047;-63
2022/03/17 04:57:47;;;;;;;63.17;42.88;;;;;;;7.97;100.00;101299.44;5048594;28;20310;-63
2022/03/17 05:00:13;;;;;;;72.80;57.13;;;;;;;7.98;100.00;101308.97;5048659;28;20066;-62
2022/03/17 05:02:39;;;;;;;77.03;58.17;;;;;;;7.92;100.00;101309.16;5047453;28;20028;-62
2022/03/17 05:05:04;;;;;;;75.90;57.95;;;;;;;7.86;100.00;101309.31;5050486;28;20090;-64
2022/03/17 05:07:30;;;;;;;70.65;51.47;;;;;;;7.82;100.00;101312.03;5049697;28;20035;-63
2022/03/17 05:09:55;;;;;;;71.03;57.80;;;;;;;7.83;100.00;101329.44;5051086;28;20024;-63
2022/03/17 05:12:20;;;;;;;112.47;75.63;;;;;;;7.78;100.00;101332.16;5050808;28;20028;-63
2022/03/17 05:14:46;;;;;;;107.07;84.45;;;;;;;7.72;100.00;101345.38;5049619;28;20039;-63
2022/03/17 05:17:11;;;;;;;137.27;101.28;;;;;;;7.66;100.00;101349.03;5048260;28;20462;-64
2022/03/17 05:19:37;;;;;;;122.78;96.47;;;;;;;7.65;100.00;101360.38;5047686;28;20027;-63
2022/03/17 05:22:02;;;;;;;106.72;83.72;;;;;;;7.59;100.00;101362.25;5048937;28;20031;-63
2022/03/17 05:24:28;;;;;;;93.28;73.38;;;;;;;7.61;100.00;101376.16;5048659;28;21000;-63
2022/03/17 05:26:56;;;;;;;77.93;65.97;;;;;;;7.55;100.00;101381.53;5048148;28;20135;-63
2022/03/17 05:29:21;;;;;;;74.18;64.13;;;;;;;7.50;100.00;101391.25;5047431;28;20026;-63
2022/03/17 05:31:47;;;;;;;76.45;59.60;;;;;;;7.48;100.00;101395.63;5047412;28;20942;-63
2022/03/17 05:34:12;;;;;;;70.82;53.03;;;;;;;7.50;100.00;101407.75;5046355;28;20091;-63
2022/03/17 05:36:38;;;;;;;49.85;43.60;;;;;;;7.43;100.00;101394.88;5046831;28;20044;-63
2022/03/17 05:39:03;;;;;;;47.03;36.13;;;;;;;7.49;100.00;101418.28;5046498;28;20028;-63
2022/03/17 05:41:29;;;;;;;45.03;31.25;;;;;;;7.45;100.00;101427.06;5045914;28;20020;-63
2022/03/17 05:43:54;;;;;;;33.33;25.30;;;;;;;7.48;100.00;101427.00;5047239;28;20031;-63
2022/03/17 05:46:20;;;;;;;30.85;23.92;;;;;;;7.44;100.00;101420.09;5046580;28;20039;-62
2022/03/17 05:48:46;;;;;;;28.52;22.90;;;;;;;7.50;100.00;101435.69;5046892;28;20863;-63
2022/03/17 05:51:11;;;;;;;21.27;18.85;;;;;;;7.48;100.00;101443.56;5046515;28;20051;-63
2022/03/17 05:53:37;;;;;;;25.80;18.65;;;;;;;7.39;100.00;101427.19;5047945;28;20871;-63
2022/03/17 05:56:02;;;;;;;19.40;17.23;;;;;;;7.39;100.00;101421.97;5062098;28;20034;-63
2022/03/17 05:58:27;;;;;;;28.45;17.38;;;;;;;7.62;100.00;101472.03;5043379;28;20036;-63
2022/03/17 06:00:53;;;;;;;20.42;15.88;;;;;;;7.62;100.00;101466.81;5066586;28;20869;-63
2022/03/17 06:03:18;;;;;;;18.73;14.55;;;;;;;7.62;100.00;101477.28;5066362;28;20032;-63
2022/03/17 06:05:44;;;;;;;18.83;13.70;;;;;;;7.60;100.00;101477.28;5067786;28;20034;-63
2022/03/17 06:08:09;;;;;;;25.92;15.10;;;;;;;7.54;100.00;101476.56;5066293;28;20037;-63
2022/03/17 06:10:35;;;;;;;19.45;14.07;;;;;;;7.52;100.00;101488.81;5066450;28;20958;-63
2022/03/17 06:13:02;;;;;;;23.15;16.23;;;;;;;7.48;100.00;101501.09;5066607;28;20036;-63
2022/03/17 06:15:28;;;;;;;22.83;15.52;;;;;;;7.39;100.00;101505.63;5066525;28;20024;-61
2022/03/17 06:17:55;;;;;;;18.98;14.98;;;;;;;7.32;100.00;101520.56;5065374;28;20075;-62
2022/03/17 06:20:23;;;;;;;22.80;16.77;;;;;;;7.26;100.00;101525.94;5066402;28;20027;-62
2022/03/17 06:22:50;;;;;;;18.75;15.88;;;;;;;7.17;100.00;101529.56;5065959;28;20029;-62
2022/03/17 06:25:18;;;;;;;21.15;14.48;;;;;;;7.12;100.00;101539.25;5065955;28;20036;-62
2022/03/17 06:27:44;;;;;;;16.50;13.65;;;;;;;7.06;100.00;101523.66;5048446;28;20035;-62
2022/03/17 06:30:21;;;;;;;21.48;15.05;;;;;;;7.07;100.00;101530.59;5065878;28;20028;-62
2022/03/17 06:32:46;;;;;;;19.80;13.43;;;;;;;6.95;100.00;101530.84;5066785;28;20024;-62
2022/03/17 06:35:17;;;;;;;14.10;12.02;;;;;;;7.01;100.00;101546.41;5065797;28;20043;-62
2022/03/17 06:37:54;;;;;;;15.93;12.35;;;;;;;6.92;100.00;101545.69;5065470;28;20100;-62
2022/03/17 06:40:20;;;;;;;22.00;13.77;;;;;;;6.95;100.00;101562.19;5066475;28;20042;-63
2022/03/17 06:42:47;;;;;;;23.95;14.73;;;;;;;6.96;100.00;101569.13;5065484;28;20084;-62
2022/03/17 06:45:13;;;;;;;22.60;15.45;;;;;;;6.98;100.00;101577.81;5065964;28;20026;-62
2022/03/17 06:47:39;;;;;;;24.23;16.98;;;;;;;7.01;100.00;101580.38;5065294;28;20081;-63
2022/03/17 06:50:06;;;;;;;23.45;16.77;;;;;;;6.99;100.00;101590.00;5067116;28;20035;-62
2022/03/17 06:52:32;;;;;;;22.48;17.15;;;;;;;6.76;100.00;101549.47;5067022;28;20389;-62
2022/03/17 06:54:57;;;;;;;27.65;17.60;;;;;;;6.99;100.00;101605.66;5048119;28;20564;-63
2022/03/17 06:57:23;;;;;;;22.13;15.80;;;;;;;6.99;100.00;101608.28;5066476;28;20030;-62
2022/03/17 06:59:50;;;;;;;21.05;15.23;;;;;;;6.92;100.00;101609.28;5048756;28;20032;-63
2022/03/17 07:02:16;;;;;;;22.17;13.88;;;;;;;6.93;100.00;101608.34;5068220;28;20122;-63
2022/03/17 07:04:42;;;;;;;17.33;13.38;;;;;;;6.82;100.00;101605.06;5067203;28;20036;-62
2022/03/17 07:07:07;;;;;;;16.60;11.73;;;;;;;6.44;100.00;101540.38;5065320;28;20062;-63
2022/03/17 07:09:33;;;;;;;16.42;11.32;;;;;;;7.04;100.00;101629.97;5067383;28;20019;-63
2022/03/17 07:11:58;;;;;;;12.75;10.63;;;;;;;7.16;100.00;101632.38;5068443;28;20142;-62
2022/03/17 07:14:24;;;;;;;15.57;10.77;;;;;;;7.27;100.00;101644.41;5067221;28;20028;-63
2022/03/17 07:16:49;;;;;;;13.68;10.00;;;;;;;7.32;100.00;101646.06;5068561;28;20031;-63
2022/03/17 07:19:15;;;;;;;14.60;10.23;;;;;;;7.43;100.00;101658.97;5067819;28;20028;-63
2022/03/17 07:21:41;;;;;;;15.10;10.63;;;;;;;7.55;100.00;101661.34;5067213;28;20027;-62
2022/03/17 07:24:08;;;;;;;15.00;10.90;;;;;;;7.62;100.00;101665.59;5068458;28;20055;-63
2022/03/17 07:26:33;;;;;;;14.13;10.88;;;;;;;7.72;100.00;101672.38;5068778;28;20034;-63
2022/03/17 07:28:59;;;;;;;18.40;11.27;;;;;;;7.74;100.00;101675.81;5067392;28;20032;-63
2022/03/17 07:31:24;;;;;;;13.10;11.02;;;;;;;7.80;100.00;101678.34;5055759;28;20065;-62
2022/03/17 07:33:50;;;;;;;17.35;10.32;;;;;;;7.69;100.00;101667.22;5072741;28;20076;-63
2022/03/17 07:36:16;;;;;;;14.77;8.63;;;;;;;7.80;100.00;101686.19;5070739;28;20036;-63
2022/03/17 07:38:41;;;;;;;9.30;7.45;;;;;;;7.82;100.00;101688.78;5070965;28;20031;-64
2022/03/17 07:41:08;;;;;;;9.30;7.18;;;;;;;7.71;100.00;101678.50;5110020;28;20470;-62
2022/03/17 07:43:33;;;;;;;12.18;7.93;;;;;;;7.74;100.00;101709.81;5105966;28;20401;-62
2022/03/17 07:45:58;;;;;;;12.98;8.63;;;;;;;7.61;100.00;101710.94;5111786;28;20038;-62
2022/03/17 07:48:24;;;;;;;11.63;8.45;;;;;;;7.33;100.00;101694.00;5112364;28;20062;-62
2022/03/17 07:50:50;;;;;;;9.82;8.75;;;;;;;7.34;100.00;101719.22;5112230;28;20519;-62
2022/03/17 07:53:16;;;;;;;10.13;8.20;;;;;;;7.14;100.00;101715.19;5112265;28;20111;-62
2022/03/17 07:55:42;;;;;;;11.07;8.23;;;;;;;7.01;100.00;101718.84;5111279;28;20554;-62
2022/03/17 07:58:08;;;;;;;11.77;8.68;;;;;;;7.00;100.00;101724.97;5109416;28;20102;-62
2022/03/17 08:00:33;;;;;;;13.70;8.25;;;;;;;6.90;100.00;101741.66;5084024;28;20476;-62
2022/03/17 08:02:59;;;;;;;12.30;8.13;;;;;;;6.80;100.00;101744.41;5111276;28;20072;-63
2022/03/17 08:05:25;;;;;;;9.48;7.30;;;;;;;6.85;100.00;101759.16;5078794;28;20020;-62
2022/03/17 08:07:50;;;;;;;10.55;6.18;;;;;;;6.59;100.00;101719.44;5067819;28;20058;-63
2022/03/17 08:10:16;;;;;;;9.43;6.85;;;;;;;6.80;100.00;101760.94;5069035;28;20032;-63
2022/03/17 08:12:41;;;;;;;13.13;6.93;;;;;;;6.50;100.00;101702.13;5068452;28;20019;-63
2022/03/17 08:15:07;;;;;;;12.05;6.63;;;;;;;7.04;100.00;101781.53;5069589;28;20749;-63
2022/03/17 08:17:33;;;;;;;12.88;5.90;;;;;;;7.15;100.00;101777.03;5067357;28;20135;-63
2022/03/17 08:19:58;;;;;;;10.10;5.13;;;;;;;7.37;100.00;101784.56;5067740;28;20899;-63
2022/03/17 08:22:25;;;;;;;8.35;4.88;;;;;;;7.45;100.00;101798.38;5068173;28;20037;-62
2022/03/17 08:24:50;;;;;;;7.93;5.25;;;;;;;7.43;100.00;101792.31;5070552;28;20100;-62
2022/03/17 08:27:16;;;;;;;7.57;4.65;;;;;;;7.42;100.00;101794.06;5069455;28;20028;-63
2022/03/17 08:29:42;;;;;;;15.90;5.03;;;;;;;7.42;100.00;101794.06;5069352;28;20055;-63
2022/03/17 08:32:08;;;;;;;9.75;4.82;;;;;;;7.48;100.00;101811.41;5069915;28;20084;-62
2022/03/17 08:34:34;;;;;;;5.95;3.75;;;;;;;7.38;100.00;101802.84;5069574;28;20135;-62
2022/03/17 08:37:00;;;;;;;8.48;4.55;;;;;;;7.39;100.00;101814.16;5070341;28;20078;-62
2022/03/17 08:39:26;;;;;;;6.32;3.75;;;;;;;7.45;100.00;101816.69;5069549;28;20832;-63
2022/03/17 08:41:52;;;;;;;9.98;4.72;;;;;;;7.44;100.00;101813.19;5067608;28;20023;-63
2022/03/17 08:44:18;;;;;;;10.52;4.28;;;;;;;7.52;100.00;101827.03;5068872;28;20031;-63
2022/03/17 08:49:27;;;;;;;14.67;5.10;;;;;;;7.57;100.00;101850.50;5068889;28;20038;-63
2022/03/17 08:51:59;;;;;;;7.68;4.05;;;;;;;7.50;100.00;101854.94;5052058;28;21155;-62
2022/03/17 08:54:27;;;;;;;7.65;4.50;;;;;;;7.52;100.00;101857.53;5068787;28;20040;-62
2022/03/17 08:56:59;;;;;;;7.70;4.78;;;;;;;7.43;100.00;101857.69;5067760;28;20038;-62
2022/03/17 08:59:33;;;;;;;5.97;4.20;;;;;;;7.40;100.00;101857.72;5068146;28;20097;-63
2022/03/17 09:01:59;;;;;;;10.65;4.75;;;;;;;7.44;100.00;101877.69;5099986;28;20028;-62
2022/03/17 09:04:26;;;;;;;8.93;4.72;;;;;;;7.44;100.00;101864.63;5114831;28;20473;-62
2022/03/17 09:06:51;;;;;;;7.72;4.25;;;;;;;7.47;100.00;101875.06;5112381;28;20024;-62
2022/03/17 09:09:16;;;;;;;10.38;4.90;;;;;;;7.52;100.00;101873.25;5114087;28;20119;-62
2022/03/17 09:11:42;;;;;;;6.25;3.78;;;;;;;7.55;100.00;101878.44;5113683;28;20464;-62
2022/03/17 09:14:08;;;;;;;7.43;4.40;;;;;;;7.45;100.00;101877.69;5114872;28;20023;-62
2022/03/17 09:16:33;;;;;;;5.55;4.25;;;;;;;7.16;100.00;101838.84;5114438;28;20421;-63
2022/03/17 09:18:59;;;;;;;9.93;4.80;;;;;;;7.47;100.00;101891.59;5112449;28;20493;-62
2022/03/17 09:21:25;;;;;;;7.85;4.53;;;;;;;7.57;100.00;101887.13;5114565;28;20046;-62
2022/03/17 09:23:51;;;;;;;5.50;4.05;;;;;;;7.75;100.00;101894.69;5113505;28;20031;-63
2022/03/17 09:26:16;;;;;;;6.35;4.60;;;;;;;7.95;100.00;101887.41;5111787;28;20027;-63
2022/03/17 09:28:43;;;;;;;7.95;4.72;;;;;;;7.95;100.00;101874.34;5113548;28;20053;-62
2022/03/17 09:31:09;;;;;;;6.85;4.03;;;;;;;8.15;100.00;101908.91;5112921;28;20074;-63
2022/03/17 09:33:34;;;;;;;10.00;4.30;;;;;;;8.20;100.00;101901.84;5112667;28;20059;-62
2022/03/17 09:36:00;;;;;;;9.32;3.80;;;;;;;8.22;100.00;101907.91;5113781;28;20114;-62
2022/03/17 09:38:26;;;;;;;5.78;3.20;;;;;;;8.08;100.00;101902.03;5112933;28;20031;-62
2022/03/17 09:40:51;;;;;;;11.75;4.03;;;;;;;8.15;100.00;101919.38;5084430;28;20063;-63
2022/03/17 09:43:21;;;;;;;7.38;3.70;;;;;;;8.21;100.00;101908.81;5066442;28;20238;-63
2022/03/17 09:45:54;;;;;;;6.18;3.30;;;;;;;8.27;100.00;101907.84;5066391;28;20027;-63
2022/03/17 09:48:22;;;;;;;8.80;3.05;;;;;;;8.37;100.00;101919.94;5067845;28;20035;-63
2022/03/17 09:50:48;;;;;;;7.40;3.67;;;;;;;8.41;100.00;101924.25;5066700;28;20153;-63
2022/03/17 09:53:14;;;;;;;6.28;3.33;;;;;;;8.32;100.00;101931.38;5047500;28;20225;-62
2022/03/17 09:55:43;;;;;;;8.48;4.38;;;;;;;8.05;100.00;101893.38;5047968;28;20024;-62
2022/03/17 09:58:09;;;;;;;8.32;3.85;;;;;;;8.35;100.00;101950.50;5065785;28;20930;-62
2022/03/17 10:00:53;;;;;;;9.55;3.80;;;;;;;8.22;100.00;101952.44;5067264;28;20028;-62
2022/03/17 10:03:25;;;;;;;5.90;3.28;;;;;;;8.20;100.00;101949.00;5030876;28;20923;-62
2022/03/17 10:05:50;;;;;;;8.82;3.67;;;;;;;8.27;100.00;101946.28;5051703;28;20234;-62
2022/03/17 10:08:17;;;;;;;11.82;4.50;;;;;;;8.40;100.00;101960.94;5062632;28;20036;-62
2022/03/17 10:10:43;;;;;;;10.25;4.13;;;;;;;8.27;100.00;101947.13;5065525;27;20051;-62
2022/03/17 10:13:14;;;;;;;7.28;4.13;;;;;;;8.09;100.00;101961.38;5063933;28;20094;-62
2022/03/17 10:15:59;;;;;;;7.93;4.45;;;;;;;8.12;100.00;101956.09;5064573;28;20042;-62
2022/03/17 10:18:25;;;;;;;11.10;4.32;;;;;;;8.16;100.00;101956.91;5063853;28;20035;-68
2022/03/17 10:21:13;;;;;;;10.73;4.43;;;;;;;8.40;100.00;101972.28;5063738;28;20039;-63
2022/03/17 10:24:07;;;;;;;7.53;3.75;;;;;;;8.55;100.00;101976.41;5063690;28;20969;-63
2022/03/17 10:26:40;;;;;;;8.80;4.35;;;;;;;8.76;100.00;101980.41;5052688;28;20438;-62
2022/03/17 10:29:19;;;;;;;10.95;4.30;;;;;;;8.93;100.00;101986.22;5064851;28;20144;-63
2022/03/17 10:31:58;;;;;;;6.90;3.70;;;;;;;8.89;100.00;101988.00;5063807;28;20024;-62
2022/03/17 10:34:29;;;;;;;12.40;4.22;;;;;;;8.53;100.00;101968.56;5066276;28;20044;-62
2022/03/17 10:37:25;;;;;;;10.35;4.82;;;;;;;8.43;100.00;101998.41;5065585;28;20035;-62
2022/03/17 10:39:55;;;;;;;7.68;4.22;;;;;;;8.25;100.00;101997.81;5048319;28;20031;-62
2022/03/17 10:42:28;;;;;;;7.05;3.78;;;;;;;8.13;100.00;101998.84;5066413;28;20051;-62
2022/03/17 10:45:05;;;;;;;13.27;4.57;;;;;;;8.12;100.00;102008.44;5066697;28;20036;-62
2022/03/17 10:47:39;;;;;;;11.77;4.00;;;;;;;8.11;100.00;102016.34;5065864;28;20126;-62
2022/03/17 10:50:12;;;;;;;;;;;;;;;8.17;100.00;102021.47;5066704;28;20027;-62
2022/03/17 10:52:43;;;;;;;9.73;4.53;;;;;;;8.28;100.00;102021.31;5066535;28;19919;-62
2022/03/17 10:55:09;;;;;;;10.80;4.28;;;;;;;7.97;100.00;101955.47;5065232;28;20035;-63
2022/03/17 10:57:35;;;;;;;10.57;4.88;;;;;;;8.57;100.00;102029.63;5039510;28;20936;-62
2022/03/17 11:00:00;;;;;;;8.77;3.85;;;;;;;8.44;100.00;102001.91;5065152;28;20023;-62
2022/03/17 11:02:26;;;;;;;10.85;4.60;;;;;;;8.53;100.00;102035.81;5065538;28;20049;-62
2022/03/17 11:04:51;;;;;;;6.88;3.60;;;;;;;8.40;100.00;102013.31;5048839;28;20999;-62
2022/03/17 11:07:19;;;;;;;6.82;3.15;;;;;;;8.65;100.00;102028.59;5065936;28;20027;-62
2022/03/17 11:09:46;;;;;;;10.43;3.42;;;;;;;8.79;100.00;102041.47;5066126;28;20926;-62
2022/03/17 11:12:17;;;;;;;9.30;3.20;;;;;;;8.82;100.00;102048.47;5046383;28;20023;-62
2022/03/17 11:14:44;;;;;;;6.25;3.33;;;;;;;8.83;100.00;102048.41;5064714;28;20031;-62
2022/03/17 11:17:31;;;;;;;7.03;3.50;;;;;;;8.94;100.00;102056.97;5064501;28;20024;-62
2022/03/17 11:20:09;;;;;;;9.60;3.67;;;;;;;8.90;100.00;102050.03;5042430;28;20933;-62
2022/03/17 11:22:35;;;;;;;9.18;4.05;;;;;;;8.98;100.00;102060.41;5048370;28;20023;-62
2022/03/17 11:25:19;;;;;;;23.77;4.25;;;;;;;9.14;100.00;102057.50;5065488;28;20095;-62